This is the latest recevied weather packets stored in our database for station/object N6OL. If no packets are shown the sender has not sent any weather packets the latest 10 day(s).
| Time | Temp. | Humidity | Pressure | Rain* | Wind** | Luminosity | Snow |
|---|---|---|---|---|---|---|---|
| 1778130303 | 12.78° C | 87% | 1019.2 hPa | 0 mm | - | 0 W/m² | - |
| 1778130024 | 12.78° C | 87% | 1019.2 hPa | 0 mm | - | 0 W/m² | - |
| 1778129103 | 13.33° C | 87% | 1019.2 hPa | 0 mm | - | 0 W/m² | - |
| 1778128503 | 13.33° C | 87% | 1019 hPa | 0 mm | - | 0 W/m² | - |
| 1778126103 | 13.33° C | 86% | 1018.7 hPa | 0 mm | - | 0 W/m² | - |
| 1778124603 | 13.33° C | 85% | 1018.6 hPa | 0 mm | - | 0 W/m² | - |
| 1778123403 | 13.89° C | 85% | 1018.4 hPa | 0 mm | - | 0 W/m² | - |
| 1778122803 | 13.89° C | 84% | 1018.3 hPa | 0 mm | - | 5 W/m² | - |
| 1778121603 | 14.44° C | 82% | 1018.1 hPa | 0 mm | - | 18 W/m² | - |
| 1778121303 | 14.44° C | 81% | 1018.1 hPa | 0 mm | - | 28 W/m² | - |
| 1778120103 | 15° C | 80% | 1018.1 hPa | 0 mm | - | 76 W/m² | - |
| 1778119803 | 15° C | 79% | 1018 hPa | 0 mm | - | 86 W/m² | - |
| 1778119524 | 15° C | 79% | 1018.1 hPa | 0 mm | - | 100 W/m² | - |
| 1778117703 | 16.11° C | 76% | 1018 hPa | 0 mm | - | 199 W/m² | - |
| 1778115903 | 17.22° C | 74% | 1018 hPa | 0 mm | - | 290 W/m² | - |
| 1778115624 | 17.22° C | 74% | 1018 hPa | 0 mm | - | 304 W/m² | - |
| 1778114403 | 17.22° C | 73% | 1017.9 hPa | 0 mm | - | 362 W/m² | - |
| 1778113803 | 17.78° C | 72% | 1017.8 hPa | 0 mm | - | 394 W/m² | - |
| 1778113524 | 17.78° C | 73% | 1017.7 hPa | 0 mm | - | 404 W/m² | - |
| 1778111403 | 18.33° C | 71% | 1018 hPa | 0 mm | - | 501 W/m² | - |
| 1778110803 | 18.33° C | 70% | 1017.8 hPa | 0 mm | - | 527 W/m² | - |
| 1778108703 | 17.78° C | 72% | 1018 hPa | 0 mm | - | 610 W/m² | - |
| 1778107803 | 18.33° C | 71% | 1018.1 hPa | 0 mm | - | 643 W/m² | - |
| 1778106603 | 18.89° C | 71% | 1018.5 hPa | 0 mm | - | 682 W/m² | - |
| 1778105103 | 18.33° C | 71% | 1018.6 hPa | 0 mm | - | 726 W/m² | - |
* Rain latest hour (hover to see other rain measurements)
** Current wind speed in m/s (hover to see current wind gust speed)